Flight Track Log - Related Links

Times and Time Zones

All times are in EDT time to prevent confusion due to time zone crossing. See the CFS671 flight status page for this flight to view local times or setup timezone preferences in your user account.

Time Position Orientation Groundspeed Altitude Reporting Facility
EDT Latitude Longitude Course Direction KTS MPH feet Rate Location/Type
Tue 07:26:05 PM 42.3092 -121.7867 351° North 152 175 7,100  Level Seattle Center
Tue 07:27:06 PM 42.3506 -121.7956 351° North 151 174 7,600 488 Climbing Seattle Center
Tue 07:28:08 PM 42.4006 -121.8069 350° North 152 175 8,100 439 Climbing Seattle Center
Tue 07:29:09 PM 42.4433 -121.8200 347° North 154 177 8,500 492 Climbing Seattle Center
Tue 07:30:10 PM 42.4847 -121.8311 349° North 154 177 9,100 443 Climbing Seattle Center
Tue 07:31:11 PM 42.5267 -121.8419 349° North 154 177 9,400 344 Climbing Seattle Center
Tue 07:32:12 PM 42.5689 -121.8544 348° North 154 177 9,800 439 Climbing Seattle Center
Tue 07:33:14 PM 42.6108 -121.8664 348° North 155 178 10,300 293 Climbing Seattle Center
Tue 07:34:15 PM 42.6539 -121.8783 348° North 156 180 10,400 49 Climbing Seattle Center
Tue 07:35:16 PM 42.7006 -121.8917 348° North 163 188 10,400  Level Seattle Center
Tue 07:36:17 PM 42.7483 -121.9061 347° North 173 199 10,400  Level Seattle Center
Tue 07:37:18 PM 42.8056 -121.9206 350° North 173 199 10,400  Level Seattle Center
Tue 07:38:19 PM 42.8533 -121.9367 346° North 175 201 10,400  Level Seattle Center
Tue 07:39:21 PM 42.9011 -121.9511 348° North 178 205 10,400  Level Seattle Center
Tue 07:40:22 PM 42.9483 -121.9669 346° North 176 203 10,400  Level Seattle Center
Tue 07:41:23 PM 42.9972 -121.9803 349° North 177 204 10,400  Level Seattle Center
Tue 07:42:24 PM 43.0456 -121.9919 350° North 178 205 10,400  Level Seattle Center
Tue 07:43:25 PM 43.0928 -122.0081 346° North 176 203 10,400  Level Seattle Center
Tue 07:44:26 PM 43.1406 -122.0192 350° North 174 200 10,400  Level Seattle Center
Tue 07:45:27 PM 43.1892 -122.0328 348° North 178 205 10,400  Level Seattle Center
Tue 07:46:29 PM 43.2383 -122.0481 347° North 181 208 10,400  Level Seattle Center
Tue 07:47:30 PM 43.2922 -122.0628 349° North 178 205 10,400  Level Seattle Center
Tue 07:48:31 PM 43.3406 -122.0792 346° North 179 206 10,400  Level Seattle Center
Tue 07:49:32 PM 43.3889 -122.0925 349° North 178 205 10,400  Level Seattle Center
Tue 07:50:33 PM 43.4400 -122.1056 349° North 185 213 10,400  Level Seattle Center
Tue 07:51:34 PM 43.4869 -122.1206 347° North 177 204 10,400  Level Seattle Center
Tue 07:52:35 PM 43.5342 -122.1347 348° North 174 200 10,400  Level Seattle Center
Tue 07:53:36 PM 43.5817 -122.1483 348° North 175 201 10,400  Level Seattle Center
Tue 07:54:38 PM 43.6392 -122.1653 348° North 176 203 10,400  Level Seattle Center
Tue 07:55:39 PM 43.6886 -122.1792 349° North 179 206 10,400  Level Seattle Center
Tue 07:56:40 PM 43.7386 -122.1925 349° North 183 211 10,400  Level Seattle Center
Tue 07:57:41 PM 43.7875 -122.2064 348° North 182 209 10,400 49 Level Seattle Center
Tue 07:58:42 PM 43.8350 -122.2214 347° North 178 205 10,500 49 Climbing Seattle Center
Tue 07:59:43 PM 43.8828 -122.2350 348° North 178 205 10,500  Level Seattle Center
Tue 08:00:44 PM 43.9300 -122.2503 347° North 175 201 10,500  Level Seattle Center
Tue 08:01:45 PM 43.9778 -122.2639 348° North 175 201 10,500 -49 Level Seattle Center
Tue 08:02:47 PM 44.0253 -122.2783 348° North 175 201 10,400 -49 Descending Seattle Center
Tue 08:03:48 PM 44.0742 -122.2928 348° North 178 205 10,400  Level Seattle Center
Tue 08:04:49 PM 44.1300 -122.3092 348° North 174 200 10,400  Level Seattle Center
Tue 08:05:50 PM 44.1783 -122.3233 348° North 175 201 10,400  Level Seattle Center
Tue 08:06:51 PM 44.2258 -122.3383 347° North 176 203 10,400  Level Seattle Center
Tue 08:07:52 PM 44.2725 -122.3522 348° North 173 199 10,400  Level Seattle Center
Tue 08:08:54 PM 44.3203 -122.3661 348° North 175 201 10,400  Level Seattle Center
Tue 08:09:55 PM 44.3678 -122.3808 348° North 175 201 10,400  Level Seattle Center
Tue 08:10:56 PM 44.4139 -122.3953 347° North 172 198 10,400  Level Seattle Center
Tue 08:11:57 PM 44.4617 -122.4083 349° North 174 200 10,400  Level Seattle Center
Tue 08:12:59 PM 44.5064 -122.4211 348° North 166 191 10,400  Level Seattle Center
Tue 08:14:00 PM 44.5508 -122.4353 347° North 164 189 10,400  Level Seattle Center
Tue 08:15:01 PM 44.6039 -122.4533 346° North 163 188 10,400 49 Level Seattle Center
Tue 08:16:02 PM 44.6481 -122.4661 348° North 163 188 10,500 49 Climbing Seattle Center
Tue 08:17:03 PM 44.6925 -122.4794 348° North 164 189 10,500 -49 Level Seattle Center
Tue 08:18:05 PM 44.7331 -122.4906 349° North 150 173 10,400 -188 Descending Seattle Center
Tue 08:18:39 PM 44.7550 -122.5008 342° North 133 153 10,200 -395 Descending Seattle Center
Tue 08:19:21 PM 44.7786 -122.5097 345° North 138 159 9,900 -341 Descending Seattle Center
Tue 08:20:07 PM 44.8058 -122.5139 354° North 136 157 9,700 -393 Descending Seattle Center
Tue 08:21:08 PM 44.8417 -122.5247 348° North 133 153 9,200 -482 Descending Seattle Center
Tue 08:22:24 PM 44.8961 -122.5444 346° North 151 174 8,600 -390 Descending Seattle Center
Tue 08:23:11 PM 44.9233 -122.5508 351° North 146 168 8,400 -222 Descending Seattle Center
Tue 08:24:12 PM 44.9703 -122.5639 349° North 158 182 8,200 -344 Descending Seattle Center
Tue 08:25:13 PM 45.0156 -122.5769 348° North 164 189 7,700 -639 Descending Seattle Center
Tue 08:26:14 PM 45.0689 -122.5942 347° North 165 190 6,900 -634 Descending Seattle Center
Tue 08:27:16 PM 45.1153 -122.6072 349° North 167 192 6,400 -537 Descending Seattle Center
Tue 08:28:17 PM 45.1611 -122.6119 356° North 167 192 5,800 -590 Descending Seattle Center
Tue 08:29:18 PM 45.2075 -122.6083 North 170 196 5,200 -541 Descending Seattle Center
Tue 08:30:19 PM 45.2519 -122.5922 14° North 169 194 4,700 -537 Descending Seattle Center
Tue 08:31:21 PM 45.2956 -122.5808 10° North 165 190 4,100 -537 Descending Seattle Center
Tue 08:32:22 PM 45.3394 -122.5753 North 161 185 3,600 -541 Descending Seattle Center
Tue 08:33:23 PM 45.3783 -122.5606 15° North 155 178 3,000 -443 Descending Seattle Center
Tue 08:34:24 PM 45.4142 -122.5522 North 141 162 2,700 -244 Descending Seattle Center
Tue 08:35:26 PM 45.4572 -122.5581 355° North 131 151 2,500 -146 Descending Seattle Center
Tue 08:36:27 PM 45.4961 -122.5586 359° North 135 155 2,400 -295 Descending Seattle Center
Tue 08:37:28 PM 45.5247 -122.5914 321° Northwest 144 166 1,900 -231 Descending Seattle Center
Tue 08:38:37 PM 45.5297 -122.5469 81° East 128 147 1,900 -197 Level Seattle Center
Tue 08:39:30 PM 45.5428 -122.5200 55° Northeast 129 148 1,500 -417 Descending Seattle Center
Tue 08:40:32 PM 45.5622 -122.5400 324° Northwest 116 133 1,100 -537 Descending Seattle Center
Tue 08:41:33 PM 45.5794 -122.5792 302° West 112 129 400 -689 Descending Seattle Center

Login

Don't have an account? Register now (free) for customized features, flight alerts, and more!